Latest Weather Observations for Mount Crawford

IDS60801

Issued at 2:35 pm CST Friday 29 August 2014 (issued every 30 minutes, with the page automatically refreshed every 10 minutes)

About weather observations | Map of weather stations | Latest weather observations for SA | Other Formats
Station Details ID: 023878 Name: MT CRAWFORD AWS Lat: -34.73 Lon: 138.93 Height: 525.0 m
Data from the previous 72 hours. | See also: Recent months at Mount Crawford
Date/Time
CST
Temp
°C
App
Temp
°C
Dew
Point
Rel
Hum
%
Delta-T
°C
Wind Press
QNH
hPa
Press
MSL
hPa
Rain
since 9 am
mm
Dir
 
Spd
km/h
Gust
km/h
Spd
kts
Gust
kts
29/02:30pm 20.2 17.5 5.8 39 7.3 NNE 9 17 5 9 1026.2 1026.6 0.0
29/02:00pm 20.1 17.8 7.5 44 6.6 NE 9 19 5 10 1026.5 1026.9 0.0
29/01:30pm 20.1 17.6 4.6 36 7.7 N 7 17 4 9 1026.8 1027.2 0.0
29/01:00pm 19.6 16.7 4.9 38 7.3 ENE 9 13 5 7 1027.0 1027.4 0.0
29/12:30pm 19.8 17.1 3.9 35 7.7 N 7 13 4 7 1027.6 1028.0 0.0
29/12:00pm 19.5 16.9 6.3 42 6.7 NW 9 13 5 7 1028.2 1028.6 0.0
29/11:30am 19.1 16.4 5.6 41 6.8 WNW 9 13 5 7 1028.5 1028.9 0.0
29/11:00am 18.6 15.7 6.4 45 6.2 N 11 15 6 8 1028.6 1029.0 0.0
29/10:30am 18.3 15.4 6.5 46 6.0 NNE 11 13 6 7 1028.7 1029.1 0.0
29/10:00am 18.0 15.8 8.0 52 5.2 NE 9 13 5 7 1028.7 1029.1 0.0
29/09:30am 16.4 13.3 5.7 49 5.3 NE 11 15 6 8 1028.8 1029.2 0.0
29/09:00am 15.8 13.0 5.1 49 5.2 ENE 9 15 5 8 1028.9 1029.3 0.0
29/08:30am 14.7 11.2 5.5 54 4.5 ENE 13 15 7 8 1028.8 1029.2 0.0
29/08:00am 13.5 8.9 5.4 58 3.9 ENE 19 24 10 13 1028.8 1029.2 0.0
29/07:30am 12.7 8.5 5.6 62 3.4 ENE 17 22 9 12 1028.7 1029.1 0.0
29/07:00am 11.8 7.9 5.4 65 3.0 ENE 15 20 8 11 1028.5 1028.9 0.0
29/06:30am 11.4 6.7 5.1 65 3.0 E 19 20 10 11 1028.4 1028.8 0.0
29/06:00am 11.1 7.1 5.0 66 2.8 E 15 19 8 10 1028.1 1028.5 0.0
29/05:30am 11.5 7.5 4.9 64 3.1 E 15 19 8 10 1027.9 1028.3 0.0
29/05:00am 11.9 8.3 4.9 62 3.3 E 13 17 7 9 1027.8 1028.2 0.0
29/04:30am 12.0 7.9 4.5 60 3.5 E 15 19 8 10 1027.8 1028.2 0.0
29/04:00am 12.5 8.8 4.5 58 3.8 E 13 17 7 9 1027.7 1028.1 0.0
29/03:30am 12.7 9.4 4.7 58 3.8 E 11 15 6 8 1027.7 1028.1 0.0
29/03:00am 12.5 8.9 5.2 61 3.5 E 13 17 7 9 1027.8 1028.2 0.0
29/02:30am 12.6 8.7 5.3 61 3.5 ESE 15 17 8 9 1028.0 1028.4 0.0
29/02:00am 12.7 8.5 5.8 63 3.3 ESE 17 19 9 10 1028.2 1028.6 0.0
29/01:30am 12.2 8.1 6.3 67 2.9 ESE 17 20 9 11 1028.4 1028.8 0.0
29/01:00am 11.7 7.7 6.6 71 2.5 ESE 17 19 9 10 1028.5 1028.9 0.0
29/12:30am 11.8 7.4 6.7 71 2.5 SE 19 22 10 12 1028.5 1028.9 0.0
29/12:00am 12.0 7.5 6.9 71 2.5 SE 20 24 11 13 1028.6 1029.0 0.0
 
Date/Time
CST
Temp
°C
App
Temp
°C
Dew
Point
Rel
Hum
%
Delta-T
°C
Wind Press
QNH
hPa
Press
MSL
hPa
Rain
since 9 am
mm
Dir
 
Spd
km/h
Gust
km/h
Spd
kts
Gust
kts
28/11:30pm 12.3 7.8 7.0 70 2.6 SE 20 24 11 13 1028.6 1029.0 0.0
28/11:00pm 12.7 8.3 7.4 70 2.7 SE 20 26 11 14 1028.6 1029.0 0.0
28/10:30pm 12.8 8.6 7.5 70 2.6 SE 19 22 10 12 1028.7 1029.1 0.0
28/10:00pm 13.2 9.4 7.4 68 2.9 SE 17 20 9 11 1028.7 1029.1 0.0
28/09:30pm 14.2 10.8 7.5 64 3.4 SE 15 19 8 10 1028.7 1029.1 0.0
28/09:00pm 15.0 11.3 7.8 62 3.7 SSE 17 19 9 10 1028.7 1029.1 0.0
28/08:30pm 14.5 11.0 7.1 61 3.7 SSE 15 17 8 9 1028.6 1029.0 0.0
28/08:00pm 15.9 14.0 6.6 54 4.7 SE 6 9 3 5 1028.4 1028.8 0.0
28/07:30pm 15.6 14.9 7.1 57 4.3 CALM 0 0 0 0 1028.0 1028.4 0.0
28/07:00pm 15.6 14.9 7.1 57 4.3 CALM 0 0 0 0 1027.8 1028.2 0.0
28/06:30pm 15.9 14.3 6.3 53 4.8 W 4 6 2 3 1027.8 1028.2 0.0
28/06:00pm 16.2 14.2 7.2 55 4.6 W 7 7 4 4 1027.8 1028.2 0.0
28/05:30pm 17.3 15.1 7.9 54 4.9 W 9 11 5 6 1027.7 1028.1 0.0
28/05:00pm 18.5 16.8 8.2 51 5.4 NNW 7 11 4 6 1027.6 1028.0 0.0
28/04:30pm 18.3 16.1 8.0 51 5.4 NNE 9 13 5 7 1027.6 1028.0 0.0
28/04:00pm 19.2 16.7 6.7 44 6.4 NNW 9 11 5 6 1027.5 1027.9 0.0
28/03:30pm 18.6 15.4 6.8 46 6.0 N 13 17 7 9 1027.3 1027.6 0.0
28/03:00pm 18.9 16.1 7.0 46 6.1 N 11 15 6 8 1027.3 1027.6 0.0
28/02:30pm 19.1 16.1 7.5 47 6.0 NNE 13 19 7 10 1027.5 1027.9 0.0
28/02:00pm 19.7 17.9 8.1 47 6.2 NNE 7 11 4 6 1027.7 1028.1 0.0
28/01:30pm 19.1 17.0 8.4 50 5.7 WNW 9 15 5 8 1027.8 1028.2 0.0
28/01:00pm 18.6 16.0 6.1 44 6.3 N 9 15 5 8 1028.1 1028.5 0.0
28/12:30pm 18.2 15.7 6.4 46 6.0 NE 9 15 5 8 1028.3 1028.7 0.0
28/12:00pm 18.4 16.4 8.7 53 5.1 N 9 15 5 8 1028.6 1029.0 0.0
28/11:30am 17.8 15.4 7.0 49 5.5 N 9 19 5 10 1028.8 1029.2 0.0
28/11:00am 17.6 14.8 6.8 49 5.5 N 11 15 6 8 1029.0 1029.5 0.0
28/10:30am 17.1 13.9 6.9 51 5.2 N 13 17 7 9 1029.1 1029.6 0.0
28/10:00am 16.6 13.9 8.8 60 4.1 NE 13 17 7 9 1029.1 1029.6 0.0
28/09:30am 16.1 13.5 7.8 58 4.3 NE 11 13 6 7 1029.1 1029.6 0.0
28/09:00am 15.7 13.6 8.4 62 3.8 NE 9 11 5 6 1029.3 1029.7 0.0
28/08:30am 14.8 12.2 6.1 56 4.3 NE 9 11 5 6 1029.1 1029.6 0.0
28/08:00am 14.4 11.5 6.5 59 3.9 NE 11 13 6 7 1028.9 1029.3 0.0
28/07:30am 14.0 11.3 5.4 56 4.1 NE 9 11 5 6 1028.7 1029.1 0.0
28/07:00am 13.3 10.5 5.2 58 3.9 ENE 9 11 5 6 1028.3 1028.7 0.0
28/06:30am 12.7 9.9 5.1 60 3.6 ENE 9 11 5 6 1028.1 1028.5 0.0
28/06:00am 12.2 9.2 5.8 65 3.1 E 11 11 6 6 1027.7 1028.1 0.0
28/05:30am 12.2 9.6 6.0 66 3.0 E 9 11 5 6 1027.7 1028.1 0.0
28/05:00am 12.1 9.1 5.9 66 3.0 E 11 11 6 6 1027.6 1028.0 0.0
28/04:30am 11.8 8.4 6.1 68 2.7 E 13 15 7 8 1027.5 1027.9 0.0
28/04:00am 11.1 7.7 6.0 71 2.4 ESE 13 15 7 8 1027.3 1027.6 0.0
28/03:30am 11.3 7.9 5.8 69 2.6 ESE 13 15 7 8 1027.4 1027.8 0.0
28/03:00am 11.1 7.3 6.0 71 2.4 ESE 15 17 8 9 1027.5 1027.9 0.0
28/02:30am 10.9 6.8 6.3 73 2.2 ESE 17 17 9 9 1027.7 1028.1 0.0
28/02:00am 10.6 6.5 6.4 75 2.0 ESE 17 20 9 11 1027.7 1028.1 0.0
28/01:30am 10.6 6.5 6.4 75 2.0 ESE 17 19 9 10 1027.9 1028.3 0.0
28/01:00am 11.0 7.0 6.6 74 2.1 SE 17 20 9 11 1028.0 1028.4 0.0
28/12:30am 11.2 7.2 6.5 73 2.3 SE 17 22 9 12 1028.1 1028.5 0.0
28/12:00am 11.5 7.1 6.4 71 2.5 ESE 19 20 10 11 1028.1 1028.5 0.0
 
Date/Time
CST
Temp
°C
App
Temp
°C
Dew
Point
Rel
Hum
%
Delta-T
°C
Wind Press
QNH
hPa
Press
MSL
hPa
Rain
since 9 am
mm
Dir
 
Spd
km/h
Gust
km/h
Spd
kts
Gust
kts
27/11:30pm 12.2 7.7 6.3 67 2.9 ESE 19 24 10 13 1028.2 1028.6 0.0
27/11:00pm 12.3 7.7 6.6 68 2.8 ESE 20 26 11 14 1028.3 1028.7 0.0
27/10:30pm 12.4 7.8 6.5 67 2.9 ESE 20 24 11 13 1028.2 1028.6 0.0
27/10:00pm 12.5 7.9 5.7 63 3.3 ESE 19 20 10 11 1028.2 1028.6 0.0
27/09:30pm 12.9 8.9 5.1 59 3.7 E 15 17 8 9 1028.1 1028.5 0.0
27/09:00pm 13.2 9.6 5.1 58 3.8 ESE 13 15 7 8 1028.0 1028.4 0.0
27/08:30pm 13.4 9.5 5.3 58 3.9 E 15 17 8 9 1027.9 1028.3 0.0
27/08:00pm 13.4 9.9 5.3 58 3.9 E 13 15 7 8 1027.7 1028.1 0.0
27/07:30pm 13.7 10.5 5.3 57 4.0 E 11 13 6 7 1027.5 1027.9 0.0
27/07:00pm 13.8 10.6 4.9 55 4.3 E 11 13 6 7 1027.0 1027.4 0.0
27/06:30pm 14.5 11.3 5.3 54 4.4 E 11 13 6 7 1026.8 1027.2 0.0
27/06:00pm 14.6 11.4 5.1 53 4.6 E 11 13 6 7 1026.6 1027.0 0.0
27/05:30pm 15.1 11.9 5.3 52 4.7 E 11 13 6 7 1026.4 1026.8 0.0
27/05:00pm 15.8 12.9 6.5 54 4.7 ENE 11 15 6 8 1026.2 1026.6 0.0
27/04:30pm 16.4 13.8 7.6 56 4.5 NE 11 15 6 8 1026.0 1026.4 0.0
27/04:00pm 16.6 13.7 6.7 52 5.0 NE 11 15 6 8 1025.9 1026.3 0.0
27/03:30pm 16.5 13.7 6.9 53 4.9 ENE 11 17 6 9 1025.8 1026.2 0.0
27/03:00pm 17.3 14.5 6.8 50 5.3 NNE 11 17 6 9 1025.7 1026.0 0.0
27/02:30pm 17.4 15.4 6.9 50 5.3 N 7 9 4 5 1025.8 1026.2 0.0
27/02:00pm 17.5 15.1 7.0 50 5.4 ENE 9 17 5 9 1025.9 1026.3 0.0
27/01:30pm 17.4 15.9 6.6 49 5.5 S 4 9 2 5 1026.1 1026.5 0.0
27/01:00pm 16.8 14.6 6.0 49 5.4 NNE 7 13 4 7 1026.3 1026.7 0.0
27/12:30pm 16.2 13.6 6.1 51 5.0 N 9 15 5 8 1026.7 1027.1 0.0
27/12:00pm 15.7 13.5 6.2 53 4.7 W 7 11 4 6 1027.3 1027.6 0.0
27/11:30am 15.8 13.5 7.6 58 4.2 NE 9 15 5 8 1027.3 1027.6 0.0
27/11:00am 15.1 12.2 8.1 63 3.6 NE 13 17 7 9 1027.6 1028.0 0.0
27/10:30am 15.0 12.0 7.5 61 3.8 NE 13 19 7 10 1027.6 1028.0 0.0
27/10:00am 14.1 10.4 6.5 60 3.8 NE 15 20 8 11 1027.4 1027.8 0.0
27/09:30am 13.3 9.9 5.9 61 3.6 ENE 13 19 7 10 1027.4 1027.8 0.0
27/09:00am 12.4 8.6 6.0 65 3.1 ENE 15 22 8 12 1027.0 1027.4 0.0
27/08:30am 11.6 6.0 5.5 66 2.9 ENE 24 30 13 16 1026.4 1026.8 0.0
27/08:00am 11.0 5.6 4.5 64 3.0 ENE 22 28 12 15 1026.4 1026.8 0.0
27/07:30am 11.0 6.5 4.2 63 3.1 ENE 17 24 9 13 1026.3 1026.7 0.0
27/07:00am 9.8 4.8 4.4 69 2.5 E 20 24 11 13 1026.0 1026.4 0.0
27/06:30am 9.6 5.1 4.2 69 2.4 E 17 20 9 11 1025.9 1026.3 0.0
27/06:00am 10.2 6.1 4.4 67 2.7 E 15 17 8 9 1025.8 1026.2 0.0
27/05:30am 10.2 6.5 4.6 68 2.6 E 13 15 7 8 1025.6 1025.9 0.0
27/05:00am 10.0 6.3 4.6 69 2.5 E 13 15 7 8 1025.2 1025.5 0.0
27/04:30am 9.5 5.1 4.7 72 2.2 E 17 20 9 11 1024.7 1025.1 0.0
27/04:00am 8.9 4.1 4.9 76 1.8 E 19 20 10 11 1024.6 1025.0 0.0
27/03:30am 8.9 4.0 5.1 77 1.7 E 20 22 11 12 1024.5 1024.9 0.0
27/03:00am 9.2 4.5 5.0 75 1.9 E 19 20 10 11 1024.6 1025.0 0.0
27/02:30am 9.6 5.2 5.0 73 2.1 E 17 19 9 10 1024.7 1025.1 0.0
27/02:00am 9.6 5.2 4.8 72 2.2 E 17 19 9 10 1024.8 1025.2 0.0
27/01:30am 9.4 5.0 5.0 74 2.0 E 17 20 9 11 1025.0 1025.4 0.0
27/01:00am 9.3 4.5 4.9 74 2.0 E 19 22 10 12 1024.8 1025.2 0.0
27/12:30am 9.6 4.3 4.8 72 2.2 E 22 28 12 15 1024.8 1025.2 0.0
27/12:00am 9.7 4.4 4.9 72 2.2 E 22 26 12 14 1024.9 1025.3 0.0
 
Date/Time
CST
Temp
°C
App
Temp
°C
Dew
Point
Rel
Hum
%
Delta-T
°C
Wind Press
QNH
hPa
Press
MSL
hPa
Rain
since 9 am
mm
Dir
 
Spd
km/h
Gust
km/h
Spd
kts
Gust
kts
26/11:30pm 9.7 4.4 4.9 72 2.2 E 22 24 12 13 1025.2 1025.5 0.0
26/11:00pm 9.5 4.6 4.9 73 2.1 E 20 24 11 13 1025.2 1025.5 0.0
26/10:30pm 10.0 5.1 5.0 71 2.3 E 20 24 11 13 1025.4 1025.7 0.0
26/10:00pm 9.8 4.5 5.2 73 2.1 E 22 24 12 13 1025.4 1025.7 0.0
26/09:30pm 10.2 5.3 5.2 71 2.3 E 20 22 11 12 1025.4 1025.7 0.0
26/09:00pm 10.3 5.6 5.3 71 2.3 E 19 20 10 11 1025.3 1025.6 0.0
26/08:30pm 10.6 6.0 5.4 70 2.4 E 19 20 10 11 1025.3 1025.6 0.0
26/08:00pm 10.4 5.8 5.8 73 2.2 E 19 22 10 12 1025.0 1025.4 0.0
26/07:30pm 10.6 5.9 6.0 73 2.2 E 20 22 11 12 1024.8 1025.2 0.0
26/07:00pm 11.3 7.2 6.0 70 2.5 ENE 17 19 9 10 1024.8 1025.2 0.0
26/06:30pm 11.6 7.9 6.3 70 2.6 ENE 15 17 8 9 1024.6 1025.0 0.0
26/06:00pm 11.8 8.1 6.3 69 2.7 E 15 17 8 9 1024.4 1024.8 0.0
26/05:30pm 12.4 9.2 6.7 68 2.8 ENE 13 17 7 9 1024.2 1024.6 0.0
26/05:00pm 13.2 10.4 6.8 65 3.2 ENE 11 15 6 8 1024.1 1024.4 0.0
26/04:30pm 13.8 10.9 6.7 62 3.5 NE 11 15 6 8 1023.9 1024.2 0.0
26/04:00pm 14.3 11.6 7.4 63 3.5 ENE 11 17 6 9 1023.9 1024.2 0.0
26/03:30pm 14.6 12.4 6.4 58 4.1 NNE 7 11 4 6 1024.0 1024.3 0.0
26/03:00pm 14.6 12.1 6.4 58 4.1 E 9 13 5 7 1024.0 1024.3 0.0

Other Formats:

Comma delimited format used in spreadsheet applications
http://www.bom.gov.au/fwo/IDS60801/IDS60801.94678.axf

JavaScript Object Notation format (JSON) in row-major order
http://www.bom.gov.au/fwo/IDS60801/IDS60801.94678.json